Time;durP1;ratioP1;P1;durP2;ratioP2;P2;SDS_P1;SDS_P2;PMS_P1;PMS_P2;Temp;Humidity;BMP_temperature;BMP_pressure;BME280_temperature;BME280_humidity;BME280_pressure;Samples;Min_cycle;Max_cycle;Signal;HPM_P1;HPM_P2
2023/02/08 00:01:53;;;;;;;;;;;;;;;;;;5052925;28;2159;-47
2023/02/08 00:04:21;;;;;;;;;;;;;;;;;;5052523;28;1712;-47
2023/02/08 00:06:48;;;;;;;;;;;;;;;;;;5052968;28;2291;-47
2023/02/08 00:09:15;;;;;;;;;;;;;;;;;;5052512;28;1973;-47
2023/02/08 00:11:43;;;;;;;;;;;;;;;;;;5052626;28;2162;-45
2023/02/08 00:14:10;;;;;;;;;;;;;;;;;;5052677;28;1760;-53
2023/02/08 00:16:37;;;;;;;;;;;;;;;;;;5052787;28;1781;-49
2023/02/08 00:19:05;;;;;;;;;;;;;;;;;;5052422;28;2071;-48
2023/02/08 00:21:32;;;;;;;;;;;;;;;;;;5052573;28;1935;-45
2023/02/08 00:23:59;;;;;;;;;;;;;;;;;;5052355;28;2067;-51
2023/02/08 00:26:26;;;;;;;;;;;;;;;;;;5052389;28;1650;-49
2023/02/08 00:28:55;;;;;;;;;;;;;;;;;;5052335;28;1915;-48
2023/02/08 00:31:23;;;;;;;;;;;;;;;;;;5052237;28;2020;-47
2023/02/08 00:33:50;;;;;;;;;;;;;;;;;;5052219;28;1941;-50
2023/02/08 00:36:17;;;;;;;;;;;;;;;;;;5052031;28;1878;-47
2023/02/08 00:38:44;;;;;;;;;;;;;;;;;;5051789;28;1967;-45
2023/02/08 00:41:11;;;;;;;;;;;;;;;;;;5052353;28;1015;-48
2023/02/08 00:43:39;;;;;;;;;;;;;;;;;;5051970;28;1904;-44
2023/02/08 00:46:08;;;;;;;;;;;;;;;;;;5051658;28;2063;-46
2023/02/08 00:48:35;;;;;;;;;;;;;;;;;;5052373;28;2137;-46
2023/02/08 00:51:05;;;;;;;;;;;;;;;;;;5033885;28;1976;-48
2023/02/08 00:53:37;;;;;;;;;;;;;;;;;;5052411;28;2238;-45
2023/02/08 00:56:04;;;;;;;;;;;;;;;;;;5051811;28;2132;-48
2023/02/08 00:58:32;;;;;;;;;;;;;;;;;;5051537;28;1455;-46
2023/02/08 01:01:00;;;;;;;;;;;;;;;;;;5033546;28;1666;-51
2023/02/08 01:03:32;;;;;;;;;;;;;;;;;;5051567;28;2040;-44
2023/02/08 01:06:03;;;;;;;;;;;;;;;;;;5051729;28;1901;-45
2023/02/08 01:08:31;;;;;;;;;;;;;;;;;;5033561;28;1688;-49
2023/02/08 01:11:03;;;;;;;;;;;;;;;;;;5051457;28;1910;-47
2023/02/08 01:13:30;;;;;;;;;;;;;;;;;;5033500;28;2415;-47
2023/02/08 01:16:11;;;;;;;;;;;;;;;;;;5033676;28;2116;-47
2023/02/08 01:18:40;;;;;;;;;;;;;;;;;;5051575;28;2084;-49
2023/02/08 01:21:08;;;;;;;;;;;;;;;;;;5051663;28;2000;-46
2023/02/08 01:23:36;;;;;;;;;;;;;;;;;;5051510;28;1947;-48
2023/02/08 01:26:03;;;;;;;;;;;;;;;;;;5051502;28;2034;-49
2023/02/08 01:28:31;;;;;;;;;;;;;;;;;;5051170;28;2036;-49
2023/02/08 01:30:58;;;;;;;;;;;;;;;;;;5033310;28;2090;-50
2023/02/08 01:33:26;;;;;;;;;;;;;;;;;;5066522;28;1947;-50
2023/02/08 01:35:54;;;;;;;;;;;;;;;;;;5051182;28;1753;-48
2023/02/08 01:38:21;;;;;;;;;;;;;;;;;;5051179;28;1966;-50
2023/02/08 01:40:50;;;;;;;;;;;;;;;;;;5051163;28;1469;-48
2023/02/08 01:43:22;;;;;;;;;;;;;;;;;;5033177;28;2079;-48
2023/02/08 01:45:50;;;;;;;;;;;;;;;;;;5050599;28;2050;-48
2023/02/08 01:48:20;;;;;;;;;;;;;;;;;;5051174;28;1881;-49
2023/02/08 01:50:53;;;;;;;;;;;;;;;;;;5050559;28;2083;-43
2023/02/08 01:53:22;;;;;;;;;;;;;;;;;;5033044;28;1885;-47
2023/02/08 01:55:51;;;;;;;;;;;;;;;;;;5066468;28;1983;-47
2023/02/08 01:58:19;;;;;;;;;;;;;;;;;;5033147;28;1767;-47
2023/02/08 02:00:46;;;;;;;;;;;;;;;;;;5033030;28;2050;-51
2023/02/08 02:03:14;;;;;;;;;;;;;;;;;;5032762;28;1982;-45
2023/02/08 02:05:43;;;;;;;;;;;;;;;;;;5051138;28;2261;-46
2023/02/08 02:08:12;;;;;;;;;;;;;;;;;;5051119;28;1862;-49
2023/02/08 02:10:40;;;;;;;;;;;;;;;;;;5051017;28;1983;-51
2023/02/08 02:13:12;;;;;;;;;;;;;;;;;;5050892;28;1960;-49
2023/02/08 02:15:43;;;;;;;;;;;;;;;;;;5032969;28;1431;-50
2023/02/08 02:18:10;;;;;;;;;;;;;;;;;;5032857;28;2044;-47
2023/02/08 02:20:44;;;;;;;;;;;;;;;;;;5050843;28;1667;-46
2023/02/08 02:23:12;;;;;;;;;;;;;;;;;;5050767;28;2085;-46
2023/02/08 02:25:57;;;;;;;;;;;;;;;;;;5050827;28;1741;-48
2023/02/08 02:28:40;;;;;;;;;;;;;;;;;;5050557;28;1551;-51
2023/02/08 02:31:33;;;;;;;;;;;;;;;;;;5050591;28;2094;-47
2023/02/08 02:34:07;;;;;;;;;;;;;;;;;;5050502;28;1805;-49
2023/02/08 02:36:35;;;;;;;;;;;;;;;;;;5032785;28;1853;-50
2023/02/08 02:39:16;;;;;;;;;;;;;;;;;;5050632;28;2144;-46
2023/02/08 02:44:39;;;;;;;;;;;;;;;;;;5050508;28;1812;-51
2023/02/08 02:47:18;;;;;;;;;;;;;;;;;;5050498;28;2044;-47
2023/02/08 02:49:55;;;;;;;;;;;;;;;;;;5050388;28;1903;-46
2023/02/08 02:52:32;;;;;;;;;;;;;;;;;;5050387;28;2508;-49
2023/02/08 02:55:04;;;;;;;;;;;;;;;;;;5050176;28;1994;-52
2023/02/08 02:57:32;;;;;;;;;;;;;;;;;;5050268;28;1946;-49
2023/02/08 02:59:59;;;;;;;;;;;;;;;;;;5050780;28;1852;-47
2023/02/08 03:02:27;;;;;;;;;;;;;;;;;;5053807;28;1778;-53
2023/02/08 03:04:55;;;;;;;;;;;;;;;;;;5054048;28;1845;-47
2023/02/08 03:07:36;;;;;;;;;;;;;;;;;;5053804;28;2012;-45
2023/02/08 03:10:03;;;;;;;;;;;;;;;;;;5053672;28;1967;-44
2023/02/08 03:12:49;;;;;;;;;;;;;;;;;;5053862;28;1994;-49
2023/02/08 03:15:29;;;;;;;;;;;;;;;;;;5054022;28;1939;-50
2023/02/08 03:18:03;;;;;;;;;;;;;;;;;;5053877;28;2138;-47
2023/02/08 03:20:50;;;;;;;;;;;;;;;;;;5053693;28;2173;-52
2023/02/08 03:23:40;;;;;;;;;;;;;;;;;;5046620;28;1632;-44
2023/02/08 03:26:10;;;;;;;;;;;;;;;;;;5035651;28;2312;-45
2023/02/08 03:28:56;;;;;;;;;;;;;;;;;;5053301;28;1486;-53
2023/02/08 03:31:27;;;;;;;;;;;;;;;;;;5053389;28;1996;-51
2023/02/08 03:34:15;;;;;;;;;;;;;;;;;;5053473;28;1555;-50
2023/02/08 03:36:52;;;;;;;;;;;;;;;;;;5053317;28;2167;-54
2023/02/08 03:39:24;;;;;;;;;;;;;;;;;;5053370;28;2309;-51
2023/02/08 03:41:52;;;;;;;;;;;;;;;;;;5053464;28;1916;-55
2023/02/08 03:44:22;;;;;;;;;;;;;;;;;;5052738;28;1872;-51
2023/02/08 03:46:52;;;;;;;;;;;;;;;;;;5053026;28;2092;-47
2023/02/08 03:49:22;;;;;;;;;;;;;;;;;;5052969;28;1981;-47
2023/02/08 03:51:51;;;;;;;;;;;;;;;;;;5052986;28;2069;-44
2023/02/08 03:54:19;;;;;;;;;;;;;;;;;;5053323;28;1436;-43
2023/02/08 03:56:47;;;;;;;;;;;;;;;;;;5053235;28;2170;-44
2023/02/08 03:59:17;;;;;;;;;;;;;;;;;;5053085;28;1501;-45
2023/02/08 04:01:46;;;;;;;;;;;;;;;;;;5050310;28;2153;-44
2023/02/08 04:04:14;;;;;;;;;;;;;;;;;;5052616;28;2064;-42
2023/02/08 04:06:41;;;;;;;;;;;;;;;;;;5052866;28;1779;-53
2023/02/08 04:09:08;;;;;;;;;;;;;;;;;;5052735;28;1720;-43
2023/02/08 04:11:35;;;;;;;;;;;;;;;;;;5051985;28;2026;-49
2023/02/08 04:14:02;;;;;;;;;;;;;;;;;;5052565;28;1970;-44
2023/02/08 04:16:30;;;;;;;;;;;;;;;;;;5052473;28;1926;-44
2023/02/08 04:18:57;;;;;;;;;;;;;;;;;;5052416;28;1969;-44
2023/02/08 04:21:24;;;;;;;;;;;;;;;;;;5052380;28;1589;-43
2023/02/08 04:23:51;;;;;;;;;;;;;;;;;;5035682;28;1331;-44
2023/02/08 04:26:19;;;;;;;;;;;;;;;;;;5041956;28;2020;-45
2023/02/08 04:28:49;;;;;;;;;;;;;;;;;;5052660;28;1694;-44
2023/02/08 04:31:16;;;;;;;;;;;;;;;;;;5052270;28;2019;-44
2023/02/08 04:33:43;;;;;;;;;;;;;;;;;;5052450;28;2057;-46
2023/02/08 04:36:10;;;;;;;;;;;;;;;;;;5052112;28;2141;-43
2023/02/08 04:38:37;;;;;;;;;;;;;;;;;;5052177;28;1836;-44
2023/02/08 04:41:05;;;;;;;;;;;;;;;;;;5052314;28;2006;-50
2023/02/08 04:43:32;;;;;;;;;;;;;;;;;;5051975;28;2239;-44
2023/02/08 04:45:59;;;;;;;;;;;;;;;;;;5051976;28;1481;-44
2023/02/08 04:48:26;;;;;;;;;;;;;;;;;;5052044;28;2336;-44
2023/02/08 04:50:54;;;;;;;;;;;;;;;;;;5051671;28;1919;-44
2023/02/08 04:53:22;;;;;;;;;;;;;;;;;;5052208;28;1704;-45
2023/02/08 04:55:49;;;;;;;;;;;;;;;;;;5052079;28;1962;-43
2023/02/08 04:58:17;;;;;;;;;;;;;;;;;;5051549;28;1801;-48
2023/02/08 05:00:44;;;;;;;;;;;;;;;;;;5051513;28;2216;-51
2023/02/08 05:03:12;;;;;;;;;;;;;;;;;;5051868;28;1853;-45
2023/02/08 05:05:39;;;;;;;;;;;;;;;;;;5051837;28;1603;-44
2023/02/08 05:08:06;;;;;;;;;;;;;;;;;;5051505;28;1628;-51
2023/02/08 05:10:33;;;;;;;;;;;;;;;;;;5051889;28;2163;-44
2023/02/08 05:13:01;;;;;;;;;;;;;;;;;;5051558;28;1872;-55
2023/02/08 05:15:29;;;;;;;;;;;;;;;;;;5051470;28;1944;-45
2023/02/08 05:17:56;;;;;;;;;;;;;;;;;;5051674;28;1663;-48
2023/02/08 05:20:23;;;;;;;;;;;;;;;;;;5051977;28;2086;-45
2023/02/08 05:22:50;;;;;;;;;;;;;;;;;;5051653;28;1658;-44
2023/02/08 05:25:19;;;;;;;;;;;;;;;;;;5050951;28;1699;-44
2023/02/08 05:27:46;;;;;;;;;;;;;;;;;;5051263;28;2263;-49
2023/02/08 05:30:14;;;;;;;;;;;;;;;;;;5033584;28;1998;-43
2023/02/08 05:32:41;;;;;;;;;;;;;;;;;;5051257;28;2128;-44
2023/02/08 05:35:08;;;;;;;;;;;;;;;;;;5051301;28;1718;-44
2023/02/08 05:37:35;;;;;;;;;;;;;;;;;;5051073;28;1800;-43
2023/02/08 05:40:03;;;;;;;;;;;;;;;;;;5023015;28;9658;-43
2023/02/08 05:42:30;;;;;;;;;;;;;;;;;;5051108;28;2181;-41
2023/02/08 05:44:57;;;;;;;;;;;;;;;;;;5051003;28;1741;-44
2023/02/08 05:47:24;;;;;;;;;;;;;;;;;;5051486;28;2014;-43
2023/02/08 05:49:52;;;;;;;;;;;;;;;;;;5051071;28;2026;-51
2023/02/08 05:52:19;;;;;;;;;;;;;;;;;;5051061;28;1902;-44
2023/02/08 05:54:46;;;;;;;;;;;;;;;;;;5050957;28;1864;-53
2023/02/08 05:57:13;;;;;;;;;;;;;;;;;;5050899;28;1817;-43
2023/02/08 05:59:40;;;;;;;;;;;;;;;;;;5050987;28;1797;-43
2023/02/08 06:02:07;;;;;;;;;;;;;;;;;;5050728;28;2019;-43
2023/02/08 06:04:35;;;;;;;;;;;;;;;;;;5050929;28;1995;-43
2023/02/08 06:07:04;;;;;;;;;;;;;;;;;;5050753;28;1762;-45
2023/02/08 06:09:31;;;;;;;;;;;;;;;;;;5050851;28;2027;-43
2023/02/08 06:11:59;;;;;;;;;;;;;;;;;;5050716;28;2082;-43
2023/02/08 06:14:26;;;;;;;;;;;;;;;;;;5051029;28;1695;-44
2023/02/08 06:16:53;;;;;;;;;;;;;;;;;;5050828;28;1968;-43
2023/02/08 06:19:21;;;;;;;;;;;;;;;;;;5050492;28;2130;-44
2023/02/08 06:21:48;;;;;;;;;;;;;;;;;;5050808;28;1905;-43
2023/02/08 06:24:15;;;;;;;;;;;;;;;;;;5050718;28;2180;-44
2023/02/08 06:26:43;;;;;;;;;;;;;;;;;;5050749;28;1778;-44
2023/02/08 06:29:10;;;;;;;;;;;;;;;;;;5050735;28;1379;-42
2023/02/08 06:31:37;;;;;;;;;;;;;;;;;;5050187;28;2080;-44
2023/02/08 06:34:04;;;;;;;;;;;;;;;;;;5032551;28;2061;-43
2023/02/08 06:36:31;;;;;;;;;;;;;;;;;;5053674;28;1791;-43
2023/02/08 06:38:58;;;;;;;;;;;;;;;;;;5054552;28;1788;-44
2023/02/08 06:41:26;;;;;;;;;;;;;;;;;;5054630;28;2104;-45
2023/02/08 06:43:53;;;;;;;;;;;;;;;;;;5054246;28;1530;-48
2023/02/08 06:46:20;;;;;;;;;;;;;;;;;;5053228;28;1561;-45
2023/02/08 06:48:47;;;;;;;;;;;;;;;;;;5054175;28;1811;-44
2023/02/08 06:51:15;;;;;;;;;;;;;;;;;;5053073;28;1919;-51
2023/02/08 06:53:42;;;;;;;;;;;;;;;;;;5054231;28;1871;-43
2023/02/08 06:56:09;;;;;;;;;;;;;;;;;;5054161;28;1548;-43
2023/02/08 06:58:37;;;;;;;;;;;;;;;;;;5054189;28;2199;-44
2023/02/08 07:01:04;;;;;;;;;;;;;;;;;;5054162;28;1748;-45
2023/02/08 07:03:31;;;;;;;;;;;;;;;;;;5053687;28;1974;-43
2023/02/08 07:05:58;;;;;;;;;;;;;;;;;;5054243;28;2188;-43
2023/02/08 07:08:32;;;;;;;;;;;;;;;;;;5053303;28;1860;-44
2023/02/08 07:10:59;;;;;;;;;;;;;;;;;;5053842;28;2157;-44
2023/02/08 07:13:26;;;;;;;;;;;;;;;;;;5053830;28;1834;-44
2023/02/08 07:15:53;;;;;;;;;;;;;;;;;;5054093;28;1852;-44
2023/02/08 07:18:20;;;;;;;;;;;;;;;;;;5053815;28;1659;-49
2023/02/08 07:20:48;;;;;;;;;;;;;;;;;;5053693;28;1963;-44
2023/02/08 07:23:15;;;;;;;;;;;;;;;;;;5053794;28;1791;-44
2023/02/08 07:25:42;;;;;;;;;;;;;;;;;;5053916;28;2115;-43
2023/02/08 07:28:09;;;;;;;;;;;;;;;;;;5053605;28;1688;-44
2023/02/08 07:30:36;;;;;;;;;;;;;;;;;;5053431;28;1985;-43
2023/02/08 07:33:03;;;;;;;;;;;;;;;;;;5053744;28;1565;-49
2023/02/08 07:35:31;;;;;;;;;;;;;;;;;;5053524;28;1792;-44
2023/02/08 07:37:58;;;;;;;;;;;;;;;;;;5053368;28;1983;-47
2023/02/08 07:40:25;;;;;;;;;;;;;;;;;;5053226;28;2016;-44
2023/02/08 07:42:52;;;;;;;;;;;;;;;;;;5052160;28;1948;-52
2023/02/08 07:45:29;;;;;;;;;;;;;;;;;;5033971;28;2121;-48
2023/02/08 07:47:56;;;;;;;;;;;;;;;;;;5050957;28;2193;-46
2023/02/08 07:50:23;;;;;;;;;;;;;;;;;;5052241;28;1819;-44
2023/02/08 07:52:51;;;;;;;;;;;;;;;;;;5051989;28;2015;-47
2023/02/08 07:55:19;;;;;;;;;;;;;;;;;;5051873;28;1792;-53
2023/02/08 07:57:47;;;;;;;;;;;;;;;;;;5051714;28;1921;-47
2023/02/08 08:00:15;;;;;;;;;;;;;;;;;;5052029;28;2077;-45
2023/02/08 08:02:42;;;;;;;;;;;;;;;;;;5051815;28;1393;-43
2023/02/08 08:05:10;;;;;;;;;;;;;;;;;;5051952;28;1877;-44
2023/02/08 08:07:37;;;;;;;;;;;;;;;;;;5051866;28;1879;-43
2023/02/08 08:10:05;;;;;;;;;;;;;;;;;;5051845;28;2050;-45
2023/02/08 08:12:33;;;;;;;;;;;;;;;;;;5051869;28;1926;-46
2023/02/08 08:15:00;;;;;;;;;;;;;;;;;;5051773;28;1914;-46
2023/02/08 08:17:27;;;;;;;;;;;;;;;;;;5051692;28;1994;-50
2023/02/08 08:19:55;;;;;;;;;;;;;;;;;;5051447;28;1599;-44
2023/02/08 08:22:22;;;;;;;;;;;;;;;;;;5051404;28;1923;-44
2023/02/08 08:24:50;;;;;;;;;;;;;;;;;;5051494;28;2192;-43
2023/02/08 08:27:17;;;;;;;;;;;;;;;;;;5051500;28;1837;-43
2023/02/08 08:29:50;;;;;;;;;;;;;;;;;;5051382;28;2103;-45
2023/02/08 08:32:18;;;;;;;;;;;;;;;;;;5051119;28;1996;-44
2023/02/08 08:34:45;;;;;;;;;;;;;;;;;;5051883;28;2033;-45
2023/02/08 08:37:13;;;;;;;;;;;;;;;;;;5051806;28;1923;-52
2023/02/08 08:39:40;;;;;;;;;;;;;;;;;;5052286;28;2061;-44
2023/02/08 08:42:07;;;;;;;;;;;;;;;;;;5052461;28;1566;-45
2023/02/08 08:44:34;;;;;;;;;;;;;;;;;;5051909;28;2095;-47
2023/02/08 08:47:01;;;;;;;;;;;;;;;;;;5052061;28;1823;-45
2023/02/08 08:49:28;;;;;;;;;;;;;;;;;;5051952;28;1964;-44
2023/02/08 08:51:56;;;;;;;;;;;;;;;;;;5051869;28;1920;-46
2023/02/08 08:54:23;;;;;;;;;;;;;;;;;;5051950;28;2094;-44
2023/02/08 08:56:50;;;;;;;;;;;;;;;;;;5052068;28;2021;-44
2023/02/08 08:59:18;;;;;;;;;;;;;;;;;;5051290;28;1836;-44
2023/02/08 09:01:45;;;;;;;;;;;;;;;;;;5051914;28;1644;-43
2023/02/08 09:04:12;;;;;;;;;;;;;;;;;;5051548;28;1599;-43
2023/02/08 09:06:39;;;;;;;;;;;;;;;;;;5051613;28;1852;-52
2023/02/08 09:09:07;;;;;;;;;;;;;;;;;;5051905;28;2000;-43
2023/02/08 09:11:34;;;;;;;;;;;;;;;;;;5051622;28;1992;-44
2023/02/08 09:14:02;;;;;;;;;;;;;;;;;;5051601;28;1747;-48
2023/02/08 09:16:31;;;;;;;;;;;;;;;;;;5051460;28;2074;-50
2023/02/08 09:19:01;;;;;;;;;;;;;;;;;;5051196;28;1838;-44
2023/02/08 09:21:30;;;;;;;;;;;;;;;;;;5051448;28;2002;-53
2023/02/08 09:23:57;;;;;;;;;;;;;;;;;;5051305;28;2242;-46
2023/02/08 09:26:25;;;;;;;;;;;;;;;;;;5050593;28;1903;-45
2023/02/08 09:28:52;;;;;;;;;;;;;;;;;;5050394;28;1794;-44
2023/02/08 09:31:20;;;;;;;;;;;;;;;;;;5050321;28;1910;-45
2023/02/08 09:33:48;;;;;;;;;;;;;;;;;;5050325;28;1368;-55
2023/02/08 09:36:16;;;;;;;;;;;;;;;;;;5050160;28;2220;-47
2023/02/08 09:38:44;;;;;;;;;;;;;;;;;;5049920;28;1526;-45
2023/02/08 09:41:23;;;;;;;;;;;;;;;;;;5050215;28;2059;-43
2023/02/08 09:44:00;;;;;;;;;;;;;;;;;;5049839;28;1644;-42
2023/02/08 09:46:29;;;;;;;;;;;;;;;;;;5050076;28;1841;-44
2023/02/08 09:48:59;;;;;;;;;;;;;;;;;;5049988;28;2239;-44
2023/02/08 09:51:40;;;;;;;;;;;;;;;;;;5049890;28;1934;-43
2023/02/08 09:54:13;;;;;;;;;;;;;;;;;;5050128;28;1284;-47
2023/02/08 09:56:43;;;;;;;;;;;;;;;;;;5050364;28;1831;-44
2023/02/08 09:59:21;;;;;;;;;;;;;;;;;;5049986;28;1650;-44
2023/02/08 10:01:50;;;;;;;;;;;;;;;;;;5049704;28;1904;-50
2023/02/08 10:04:23;;;;;;;;;;;;;;;;;;5049946;28;1916;-43
2023/02/08 10:06:50;;;;;;;;;;;;;;;;;;5049764;28;2058;-45
2023/02/08 10:09:19;;;;;;;;;;;;;;;;;;5049872;28;1475;-45
2023/02/08 10:12:25;;;;;;;;;;;;;;;;;;5053165;28;1976;-46
2023/02/08 10:14:58;;;;;;;;;;;;;;;;;;5011346;28;1940;-47
2023/02/08 10:17:44;;;;;;;;;;;;;;;;;;5011593;28;2286;-48
2023/02/08 10:20:14;;;;;;;;;;;;;;;;;;5040047;28;1800;-45
2023/02/08 10:22:53;;;;;;;;;;;;;;;;;;5054931;28;1792;-51
2023/02/08 10:25:36;;;;;;;;;;;;;;;;;;5054327;28;1941;-51
2023/02/08 10:28:10;;;;;;;;;;;;;;;;;;5054322;28;1914;-44
2023/02/08 10:30:47;;;;;;;;;;;;;;;;;;5054693;28;1674;-47
2023/02/08 10:33:24;;;;;;;;;;;;;;;;;;5054217;28;1914;-45
2023/02/08 10:35:52;;;;;;;;;;;;;;;;;;5054358;28;2005;-44
2023/02/08 10:38:20;;;;;;;;;;;;;;;;;;5054606;28;1673;-47
2023/02/08 10:41:06;;;;;;;;;;;;;;;;;;5053854;28;1847;-45
2023/02/08 10:43:42;;;;;;;;;;;;;;;;;;5053502;28;1603;-45
2023/02/08 10:46:36;;;;;;;;;;;;;;;;;;5014796;28;2199;-50
2023/02/08 10:49:15;;;;;;;;;;;;;;;;;;5012669;28;1692;-48
2023/02/08 10:51:47;;;;;;;;;;;;;;;;;;5013470;28;1973;-47
2023/02/08 10:54:22;;;;;;;;;;;;;;;;;;5013252;28;1969;-46
2023/02/08 10:56:57;;;;;;;;;;;;;;;;;;5013836;28;1965;-53
2023/02/08 10:59:29;;;;;;;;;;;;;;;;;;5014067;28;1861;-45
2023/02/08 11:01:57;;;;;;;;;;;;;;;;;;5014358;28;2009;-51
2023/02/08 11:04:24;;;;;;;;;;;;;;;;;;5014240;28;1728;-45
2023/02/08 11:06:53;;;;;;;;;;;;;;;;;;5013040;28;1690;-43
2023/02/08 11:09:28;;;;;;;;;;;;;;;;;;5014118;28;1955;-48
2023/02/08 11:12:01;;;;;;;;;;;;;;;;;;5013898;28;1967;-45
2023/02/08 11:14:31;;;;;;;;;;;;;;;;;;5014306;28;1724;-48
2023/02/08 11:17:38;;;;;;;;;;;;;;;;;;5014258;28;1731;-54
2023/02/08 11:20:06;;;;;;;;;;;;;;;;;;5013576;28;1494;-46
2023/02/08 11:22:36;;;;;;;;;;;;;;;;;;5013796;28;1973;-50
2023/02/08 11:25:05;;;;;;;;;;;;;;;;;;5012478;28;1790;-45
2023/02/08 11:27:32;;;;;;;;;;;;;;;;;;5014010;28;2071;-44
2023/02/08 11:30:08;;;;;;;;;;;;;;;;;;5013768;28;1563;-50
2023/02/08 11:32:35;;;;;;;;;;;;;;;;;;5012996;28;2040;-48
2023/02/08 11:35:20;;;;;;;;;;;;;;;;;;5013548;28;1875;-51
2023/02/08 11:37:53;;;;;;;;;;;;;;;;;;5013555;28;1982;-51
2023/02/08 11:40:26;;;;;;;;;;;;;;;;;;5013360;28;2072;-52
2023/02/08 11:42:53;;;;;;;;;;;;;;;;;;5013241;28;2003;-47
2023/02/08 11:45:26;;;;;;;;;;;;;;;;;;5032657;28;2025;-43
2023/02/08 11:47:56;;;;;;;;;;;;;;;;;;5051338;28;1496;-53
2023/02/08 11:50:25;;;;;;;;;;;;;;;;;;5052319;28;1765;-47
2023/02/08 11:52:56;;;;;;;;;;;;;;;;;;5051753;28;2076;-49
2023/02/08 11:55:25;;;;;;;;;;;;;;;;;;5051906;28;1567;-50
2023/02/08 11:57:53;;;;;;;;;;;;;;;;;;5051930;28;1994;-53
2023/02/08 12:00:22;;;;;;;;;;;;;;;;;;5052093;28;1946;-43
2023/02/08 12:02:50;;;;;;;;;;;;;;;;;;5051755;28;1516;-44
2023/02/08 12:05:21;;;;;;;;;;;;;;;;;;5052027;28;2207;-44
2023/02/08 12:08:13;;;;;;;;;;;;;;;;;;5052012;28;1434;-44
2023/02/08 12:10:47;;;;;;;;;;;;;;;;;;5052091;28;1960;-45
2023/02/08 12:13:26;;;;;;;;;;;;;;;;;;5052411;28;1939;-45
2023/02/08 12:16:12;;;;;;;;;;;;;;;;;;5052595;28;1829;-45
2023/02/08 12:18:48;;;;;;;;;;;;;;;;;;5052686;28;2259;-44
2023/02/08 12:21:24;;;;;;;;;;;;;;;;;;5052452;28;1946;-45
2023/02/08 12:23:52;;;;;;;;;;;;;;;;;;5052649;28;1896;-44
2023/02/08 12:26:29;;;;;;;;;;;;;;;;;;5052554;28;1553;-44
2023/02/08 12:29:11;;;;;;;;;;;;;;;;;;5052362;28;1612;-50
2023/02/08 12:31:57;;;;;;;;;;;;;;;;;;5052270;28;1793;-44
2023/02/08 12:34:42;;;;;;;;;;;;;;;;;;5051580;28;1993;-44
2023/02/08 12:43:22;;;;;;;;;;;;;;;;;;5020939;28;2166;-46
2023/02/08 12:45:50;;;;;;;;;;;;;;;;;;5052032;28;2103;-45
2023/02/08 12:48:39;;;;;;;;;;;;;;;;;;5052141;28;1802;-45
2023/02/08 12:51:14;;;;;;;;;;;;;;;;;;5051804;28;2131;-50
2023/02/08 12:53:51;;;;;;;;;;;;;;;;;;5051899;28;2271;-45
2023/02/08 12:56:22;;;;;;;;;;;;;;;;;;5052063;28;2164;-49
2023/02/08 12:58:50;;;;;;;;;;;;;;;;;;5051914;28;1848;-51
2023/02/08 13:01:28;;;;;;;;;;;;;;;;;;5051896;28;2099;-48
2023/02/08 13:04:05;;;;;;;;;;;;;;;;;;5051434;28;2004;-46
2023/02/08 13:06:42;;;;;;;;;;;;;;;;;;5051550;28;1849;-44
2023/02/08 13:09:15;;;;;;;;;;;;;;;;;;5051549;28;2113;-45
2023/02/08 13:11:46;;;;;;;;;;;;;;;;;;5051502;28;1981;-52
2023/02/08 13:14:22;;;;;;;;;;;;;;;;;;5051303;28;1904;-44
2023/02/08 13:16:52;;;;;;;;;;;;;;;;;;5050212;28;1967;-45
2023/02/08 13:19:24;;;;;;;;;;;;;;;;;;5051811;28;2016;-46
2023/02/08 13:21:52;;;;;;;;;;;;;;;;;;5051585;28;1795;-48
2023/02/08 13:24:25;;;;;;;;;;;;;;;;;;5051256;28;1908;-44
2023/02/08 13:26:52;;;;;;;;;;;;;;;;;;5051585;28;2094;-51
2023/02/08 13:29:21;;;;;;;;;;;;;;;;;;5051849;28;2202;-47
2023/02/08 13:31:52;;;;;;;;;;;;;;;;;;5051181;28;2065;-52
2023/02/08 13:34:19;;;;;;;;;;;;;;;;;;5049651;28;2030;-47
2023/02/08 13:36:58;;;;;;;;;;;;;;;;;;5050025;28;1499;-53
2023/02/08 13:39:25;;;;;;;;;;;;;;;;;;5049342;28;2055;-44
2023/02/08 13:41:54;;;;;;;;;;;;;;;;;;5050307;28;1585;-44
2023/02/08 13:44:27;;;;;;;;;;;;;;;;;;5049285;28;1579;-45
2023/02/08 13:46:55;;;;;;;;;;;;;;;;;;5049703;28;2082;-45
2023/02/08 13:49:42;;;;;;;;;;;;;;;;;;5050809;28;1836;-44
2023/02/08 13:52:11;;;;;;;;;;;;;;;;;;5050964;28;2152;-51
2023/02/08 13:54:38;;;;;;;;;;;;;;;;;;5050828;28;2031;-48
2023/02/08 13:57:25;;;;;;;;;;;;;;;;;;5050391;28;2120;-50
2023/02/08 14:00:11;;;;;;;;;;;;;;;;;;5032988;28;2091;-46
2023/02/08 14:02:56;;;;;;;;;;;;;;;;;;5050748;28;1593;-50
2023/02/08 14:05:45;;;;;;;;;;;;;;;;;;5051183;28;2331;-49
2023/02/08 14:08:31;;;;;;;;;;;;;;;;;;5050633;28;2196;-51
2023/02/08 14:11:05;;;;;;;;;;;;;;;;;;5050740;28;2154;-44
2023/02/08 14:13:39;;;;;;;;;;;;;;;;;;5049980;28;2017;-48
2023/02/08 14:16:24;;;;;;;;;;;;;;;;;;5050627;28;1791;-47
2023/02/08 14:18:53;;;;;;;;;;;;;;;;;;5050510;28;1836;-46
2023/02/08 14:21:28;;;;;;;;;;;;;;;;;;5050751;28;1802;-50
2023/02/08 14:24:04;;;;;;;;;;;;;;;;;;5050554;28;1908;-46
2023/02/08 14:26:34;;;;;;;;;;;;;;;;;;5049141;28;1733;-46
2023/02/08 14:29:03;;;;;;;;;;;;;;;;;;5050290;28;1939;-49
2023/02/08 14:31:39;;;;;;;;;;;;;;;;;;5050580;28;1192;-47
2023/02/08 14:34:19;;;;;;;;;;;;;;;;;;5050283;28;2258;-48
2023/02/08 14:36:56;;;;;;;;;;;;;;;;;;5032783;28;1657;-46
2023/02/08 14:39:28;;;;;;;;;;;;;;;;;;5050579;28;2094;-46
2023/02/08 14:42:07;;;;;;;;;;;;;;;;;;5050700;28;1383;-51
2023/02/08 14:44:37;;;;;;;;;;;;;;;;;;5050313;28;2149;-47
2023/02/08 14:47:12;;;;;;;;;;;;;;;;;;5050063;28;1633;-49
2023/02/08 14:49:41;;;;;;;;;;;;;;;;;;5050239;28;1973;-47
2023/02/08 14:52:14;;;;;;;;;;;;;;;;;;5050093;28;1313;-48
2023/02/08 14:55:01;;;;;;;;;;;;;;;;;;5050690;28;2057;-46
2023/02/08 14:57:30;;;;;;;;;;;;;;;;;;5053270;28;2200;-47
2023/02/08 14:59:58;;;;;;;;;;;;;;;;;;5053949;28;2118;-48
2023/02/08 15:02:30;;;;;;;;;;;;;;;;;;5032441;28;2008;-51
2023/02/08 15:04:58;;;;;;;;;;;;;;;;;;5034144;28;2067;-48
2023/02/08 15:07:37;;;;;;;;;;;;;;;;;;5033889;28;1377;-48
2023/02/08 15:10:09;;;;;;;;;;;;;;;;;;5033951;28;2216;-51
2023/02/08 15:12:37;;;;;;;;;;;;;;;;;;5033905;28;1979;-48
2023/02/08 15:15:05;;;;;;;;;;;;;;;;;;5033499;28;1821;-50
2023/02/08 15:17:34;;;;;;;;;;;;;;;;;;5033802;28;1975;-49
2023/02/08 15:20:02;;;;;;;;;;;;;;;;;;5033700;28;1747;-45
2023/02/08 15:22:32;;;;;;;;;;;;;;;;;;5033822;28;1864;-48
2023/02/08 15:25:01;;;;;;;;;;;;;;;;;;5034585;28;1274;-48
2023/02/08 15:27:30;;;;;;;;;;;;;;;;;;5053559;28;2120;-46
2023/02/08 15:30:00;;;;;;;;;;;;;;;;;;5053940;28;1804;-51
2023/02/08 15:32:28;;;;;;;;;;;;;;;;;;5053532;28;1839;-45
2023/02/08 15:35:00;;;;;;;;;;;;;;;;;;5053049;28;1969;-50
2023/02/08 15:37:32;;;;;;;;;;;;;;;;;;5053201;28;1660;-50
2023/02/08 15:40:00;;;;;;;;;;;;;;;;;;5046551;28;1847;-47
2023/02/08 15:42:29;;;;;;;;;;;;;;;;;;5033098;28;1734;-50
2023/02/08 15:44:56;;;;;;;;;;;;;;;;;;5033120;28;2116;-51
2023/02/08 15:47:28;;;;;;;;;;;;;;;;;;5033168;28;1762;-48
2023/02/08 15:49:56;;;;;;;;;;;;;;;;;;5033075;28;2074;-52
2023/02/08 15:52:26;;;;;;;;;;;;;;;;;;5032953;28;2100;-48
2023/02/08 15:54:53;;;;;;;;;;;;;;;;;;5032979;28;1967;-51
2023/02/08 15:57:20;;;;;;;;;;;;;;;;;;5032835;28;2130;-52
2023/02/08 15:59:48;;;;;;;;;;;;;;;;;;5033052;28;1994;-44
2023/02/08 16:02:15;;;;;;;;;;;;;;;;;;5034805;28;1944;-44
2023/02/08 16:04:45;;;;;;;;;;;;;;;;;;5052756;28;1761;-52
2023/02/08 16:07:22;;;;;;;;;;;;;;;;;;5052206;28;1965;-46
2023/02/08 16:09:49;;;;;;;;;;;;;;;;;;5051841;28;1788;-44
2023/02/08 16:12:19;;;;;;;;;;;;;;;;;;5052598;28;1693;-48
2023/02/08 16:14:46;;;;;;;;;;;;;;;;;;5052510;28;1914;-48
2023/02/08 16:17:27;;;;;;;;;;;;;;;;;;5052419;28;2280;-46
2023/02/08 16:19:54;;;;;;;;;;;;;;;;;;5052176;28;2020;-47
2023/02/08 16:22:26;;;;;;;;;;;;;;;;;;5052522;28;1959;-49
2023/02/08 16:25:13;;;;;;;;;;;;;;;;;;5052233;28;1894;-50
2023/02/08 16:27:46;;;;;;;;;;;;;;;;;;5052100;28;1936;-50
2023/02/08 16:30:17;;;;;;;;;;;;;;;;;;5052255;28;2162;-49
2023/02/08 16:32:45;;;;;;;;;;;;;;;;;;5052095;28;2026;-46
2023/02/08 16:35:33;;;;;;;;;;;;;;;;;;5033990;28;1988;-48
2023/02/08 16:38:01;;;;;;;;;;;;;;;;;;5051938;28;2108;-45
2023/02/08 16:40:41;;;;;;;;;;;;;;;;;;5051888;28;2022;-44
2023/02/08 16:43:17;;;;;;;;;;;;;;;;;;5051929;28;1919;-47
2023/02/08 16:45:44;;;;;;;;;;;;;;;;;;5051517;28;2153;-46
2023/02/08 16:48:32;;;;;;;;;;;;;;;;;;5051979;28;2141;-51
2023/02/08 16:50:59;;;;;;;;;;;;;;;;;;5051822;28;1848;-45
2023/02/08 16:53:30;;;;;;;;;;;;;;;;;;5051809;28;1916;-49
2023/02/08 16:56:09;;;;;;;;;;;;;;;;;;5051732;28;1820;-48
2023/02/08 16:58:36;;;;;;;;;;;;;;;;;;5052010;28;2073;-45
2023/02/08 17:01:04;;;;;;;;;;;;;;;;;;5051591;28;1860;-50
2023/02/08 17:03:31;;;;;;;;;;;;;;;;;;5051505;28;2034;-46
2023/02/08 17:06:03;;;;;;;;;;;;;;;;;;5051740;28;1742;-46
2023/02/08 17:08:31;;;;;;;;;;;;;;;;;;5051594;28;2093;-48
2023/02/08 17:10:59;;;;;;;;;;;;;;;;;;5051610;28;1994;-48
2023/02/08 17:13:26;;;;;;;;;;;;;;;;;;5051411;28;1894;-50
2023/02/08 17:15:53;;;;;;;;;;;;;;;;;;5051445;28;2092;-50
2023/02/08 17:18:20;;;;;;;;;;;;;;;;;;5051522;28;1501;-51
2023/02/08 17:20:47;;;;;;;;;;;;;;;;;;5051130;28;1882;-51
2023/02/08 17:23:15;;;;;;;;;;;;;;;;;;5051362;28;1949;-49
2023/02/08 17:25:42;;;;;;;;;;;;;;;;;;5051259;28;1445;-51
2023/02/08 17:28:15;;;;;;;;;;;;;;;;;;5050467;28;1719;-46
2023/02/08 17:30:43;;;;;;;;;;;;;;;;;;5051018;28;1549;-52
2023/02/08 17:33:16;;;;;;;;;;;;;;;;;;5051089;28;1849;-47
2023/02/08 17:35:46;;;;;;;;;;;;;;;;;;5051231;28;1755;-47
2023/02/08 17:38:14;;;;;;;;;;;;;;;;;;5050987;28;1842;-46